DAUG/GHA METAR and TAF weather

Enter ICAO airport designator
Station Type Date Time Source
DAUG METAR 2020/03/29 20:00 UTC NOAA

DAUG 292000Z 33011KT CAVOK 17/00 Q1016


Station Type Date Time Source
DAUG Decoded METAR 2020/03/29 20:00 UTC NOAA

Ghardaia, Algeria (DAUG) 32-23N 003-49E 450M
Mar 29, 2020 - 04:00 PM EDT / 2020.03.29 2000 UTC
Wind: from the NNW (330 degrees) at 13 MPH (11 KT):0
Visibility: greater than 7 mile(s):0
Temperature: 62 F (17 C)
Dew Point: 32 F (0 C)
Relative Humidity: 31%
Pressure (altimeter): 30.00 in. Hg (1016 hPa)
ob: DAUG 292000Z 33011KT CAVOK 17/00 Q1016
cycle: 20

Station Type Date Time Source
DAUG TAF 2020/03/29 18:33 UTC NOAA

TAF DAUG 291700Z 2918/3018 35014KT CAVOK
BECMG 2922/3001 VRB02KT
BECMG 3009/3012 20010KT

Example: see airport list